createdAt,value
2022-09-25T00:00:54.657Z,71.00
2022-09-25T00:03:23.130Z,72.30
2022-09-25T00:05:50.090Z,74.00
2022-09-25T00:08:17.404Z,72.10
2022-09-25T00:10:49.044Z,73.00
2022-09-25T00:13:17.223Z,73.60
2022-09-25T00:15:56.111Z,73.90
2022-09-25T00:18:42.481Z,75.30
2022-09-25T00:21:12.645Z,73.90
2022-09-25T00:23:39.937Z,73.80
2022-09-25T00:26:08.230Z,73.80
2022-09-25T00:28:38.834Z,73.90
2022-09-25T00:31:06.759Z,73.80
2022-09-25T00:33:34.019Z,73.80
2022-09-25T00:36:05.421Z,75.40
2022-09-25T00:38:33.052Z,76.00
2022-09-25T00:41:00.223Z,75.40
2022-09-25T00:43:44.690Z,75.00
2022-09-25T00:46:32.650Z,77.30
2022-09-25T00:49:16.142Z,76.50
2022-09-25T00:51:55.001Z,77.30
2022-09-25T00:54:30.496Z,76.40
2022-09-25T00:56:57.651Z,77.50
2022-09-25T00:59:27.812Z,78.10
2022-09-25T01:01:55.407Z,78.00
2022-09-25T01:04:23.280Z,76.20
2022-09-25T01:06:50.617Z,78.00
2022-09-25T01:09:17.494Z,76.80
2022-09-25T01:11:45.292Z,77.20
2022-09-25T01:14:12.192Z,77.50
2022-09-25T01:16:45.728Z,77.60
2022-09-25T01:19:25.072Z,76.60
2022-09-25T01:21:54.743Z,77.10
2022-09-25T01:25:09.236Z,76.90
2022-09-25T01:28:18.200Z,78.70
2022-09-25T01:30:45.949Z,79.60
2022-09-25T01:33:18.658Z,76.80
2022-09-25T01:35:49.571Z,77.20
2022-09-25T01:38:47.112Z,76.30
2022-09-25T01:41:45.865Z,78.50
2022-09-25T01:44:39.669Z,76.90
2022-09-25T01:47:09.790Z,77.40
2022-09-25T01:49:39.746Z,76.70
2022-09-25T01:52:07.829Z,76.60
2022-09-25T01:54:40.202Z,78.70
2022-09-25T01:57:17.814Z,76.90
2022-09-25T01:59:53.002Z,77.70
2022-09-25T02:02:21.721Z,77.60
2022-09-25T02:04:54.267Z,76.40
2022-09-25T02:07:25.470Z,76.40
2022-09-25T02:09:54.552Z,76.30
2022-09-25T02:12:26.675Z,76.30
2022-09-25T02:14:55.053Z,75.70
2022-09-25T02:18:07.557Z,76.00
2022-09-25T02:20:36.432Z,75.60
2022-09-25T02:23:23.826Z,75.40
2022-09-25T02:25:59.981Z,77.10
2022-09-25T02:28:26.840Z,75.90
2022-09-25T02:30:54.663Z,75.20
2022-09-25T02:33:21.625Z,76.50
2022-09-25T02:35:48.723Z,76.40
2022-09-25T02:38:15.708Z,76.20
2022-09-25T02:41:32.975Z,76.30
2022-09-25T02:44:33.123Z,78.30
2022-09-25T02:47:00.129Z,77.40
2022-09-25T02:49:41.785Z,78.80
2022-09-25T02:52:13.928Z,78.90
2022-09-25T02:54:44.542Z,77.20
2022-09-25T02:57:21.060Z,76.90
2022-09-25T02:59:53.656Z,78.50
2022-09-25T03:02:21.525Z,77.80
2022-09-25T03:04:48.822Z,77.60
2022-09-25T03:07:16.711Z,78.40
2022-09-25T03:09:46.967Z,79.10
2022-09-25T03:12:13.842Z,79.30
2022-09-25T03:14:40.859Z,79.10
2022-09-25T03:17:08.488Z,80.30
2022-09-25T03:19:35.458Z,80.20
2022-09-25T03:22:02.998Z,79.40
2022-09-25T03:24:29.914Z,79.80
2022-09-25T03:26:56.895Z,80.20
2022-09-25T03:29:23.720Z,80.90
2022-09-25T03:31:50.595Z,80.20
2022-09-25T03:34:18.173Z,80.40
2022-09-25T03:36:47.743Z,80.20
2022-09-25T03:39:20.933Z,79.20
2022-09-25T03:41:48.043Z,79.30
2022-09-25T03:44:15.014Z,80.10
2022-09-25T03:46:41.978Z,79.90
2022-09-25T03:49:10.619Z,80.40
2022-09-25T03:51:38.946Z,79.70
2022-09-25T03:54:05.993Z,80.40
2022-09-25T03:56:33.011Z,80.10
2022-09-25T03:58:59.915Z,80.00
2022-09-25T04:01:27.541Z,80.00
2022-09-25T04:03:54.617Z,80.30
2022-09-25T04:06:24.461Z,81.00
2022-09-25T04:08:51.678Z,81.50
2022-09-25T04:11:19.162Z,79.80
2022-09-25T04:13:46.221Z,82.00
2022-09-25T04:16:13.855Z,81.50
2022-09-25T04:18:43.018Z,81.50
2022-09-25T04:21:11.598Z,82.10
2022-09-25T04:23:38.956Z,81.70
2022-09-25T04:26:06.147Z,81.10
2022-09-25T04:28:33.193Z,81.00
2022-09-25T04:31:00.305Z,79.90
2022-09-25T04:33:46.044Z,81.20
2022-09-25T04:36:13.119Z,81.40
2022-09-25T04:38:40.028Z,81.50
2022-09-25T04:41:08.215Z,81.20
2022-09-25T04:43:35.429Z,81.10
2022-09-25T04:46:06.655Z,80.70
2022-09-25T04:48:34.280Z,81.70
2022-09-25T04:51:01.259Z,82.70
2022-09-25T04:53:29.959Z,83.50
2022-09-25T04:56:16.019Z,83.20
2022-09-25T04:58:47.559Z,83.30
2022-09-25T05:01:14.766Z,83.00
2022-09-25T05:03:41.880Z,84.40
2022-09-25T05:06:09.307Z,83.60
2022-09-25T05:08:36.190Z,83.10
2022-09-25T05:11:04.096Z,84.00
2022-09-25T05:13:31.039Z,83.70
2022-09-25T05:15:58.214Z,83.30
2022-09-25T05:18:25.320Z,83.60
2022-09-25T05:20:53.618Z,83.60
2022-09-25T05:23:21.044Z,84.60
2022-09-25T05:25:55.435Z,83.70
2022-09-25T05:28:23.570Z,83.60
2022-09-25T05:30:50.680Z,84.50
2022-09-25T05:33:19.132Z,83.70
2022-09-25T05:35:46.124Z,84.00
2022-09-25T05:38:12.961Z,83.70
2022-09-25T05:40:39.938Z,84.30
2022-09-25T05:43:06.995Z,85.60
2022-09-25T05:45:35.769Z,84.30
2022-09-25T05:48:06.411Z,84.90
2022-09-25T05:50:33.441Z,83.10
2022-09-25T05:53:01.700Z,84.00
2022-09-25T05:55:29.266Z,84.60
2022-09-25T05:58:03.511Z,84.70
2022-09-25T06:00:33.374Z,85.10
2022-09-25T06:03:03.493Z,84.70
2022-09-25T06:05:30.454Z,84.30
2022-09-25T06:07:57.367Z,86.10
2022-09-25T06:10:27.284Z,84.20
2022-09-25T06:13:01.487Z,83.90
2022-09-25T06:15:29.305Z,83.30
2022-09-25T06:17:56.495Z,82.60
2022-09-25T06:20:23.682Z,82.90
2022-09-25T06:22:56.581Z,82.40
2022-09-25T06:25:25.981Z,83.80
2022-09-25T06:27:54.491Z,83.50
2022-09-25T06:30:22.229Z,83.50
2022-09-25T06:32:51.139Z,83.90
2022-09-25T06:35:18.015Z,84.50
2022-09-25T06:37:44.936Z,83.40
2022-09-25T06:40:11.870Z,83.70
2022-09-25T06:42:39.097Z,83.70
2022-09-25T06:45:06.342Z,84.10
2022-09-25T06:47:33.223Z,83.80
2022-09-25T06:50:01.191Z,83.50
2022-09-25T06:52:28.113Z,83.90
2022-09-25T06:54:54.976Z,83.70
2022-09-25T06:57:21.838Z,83.20
2022-09-25T06:59:48.665Z,83.00
2022-09-25T07:02:34.105Z,82.70
2022-09-25T07:05:01.289Z,82.80
2022-09-25T07:07:28.935Z,82.60
2022-09-25T07:09:55.839Z,81.80
2022-09-25T07:12:22.775Z,81.10
2022-09-25T07:14:49.595Z,81.00
2022-09-25T07:17:16.459Z,81.60
2022-09-25T07:19:43.395Z,81.30
2022-09-25T07:22:12.740Z,81.00
2022-09-25T07:24:39.600Z,81.00
2022-09-25T07:27:06.540Z,80.80
2022-09-25T07:29:35.599Z,80.40
2022-09-25T07:32:02.717Z,79.40
2022-09-25T07:34:29.590Z,77.00
2022-09-25T07:36:56.444Z,78.40
2022-09-25T07:39:23.424Z,75.20
2022-09-25T07:41:50.276Z,73.50
2022-09-25T07:44:28.674Z,76.40
2022-09-25T07:46:56.966Z,76.60
2022-09-25T07:49:24.094Z,74.20
2022-09-25T07:51:50.911Z,76.20
2022-09-25T07:54:17.809Z,75.10
2022-09-25T07:56:44.769Z,73.50
2022-09-25T07:59:11.651Z,74.80
2022-09-25T08:01:43.722Z,75.50
2022-09-25T08:04:12.730Z,73.90
2022-09-25T08:06:39.700Z,73.60
2022-09-25T08:09:10.323Z,72.50
2022-09-25T08:11:38.060Z,73.90
2022-09-25T08:14:04.975Z,73.90
2022-09-25T08:16:31.921Z,74.10
2022-09-25T08:18:58.820Z,72.00
2022-09-25T08:21:25.803Z,69.00
2022-09-25T08:23:53.450Z,67.20
2022-09-25T08:26:23.637Z,71.20
2022-09-25T08:28:51.054Z,67.40
2022-09-25T08:31:18.307Z,68.30
2022-09-25T08:33:49.442Z,70.00
2022-09-25T08:36:16.704Z,68.10
2022-09-25T08:38:43.706Z,71.80
2022-09-25T08:41:31.693Z,70.20
2022-09-25T08:44:06.311Z,68.50
2022-09-25T08:47:02.884Z,69.60
2022-09-25T08:49:33.867Z,69.20
2022-09-25T08:52:03.116Z,70.80
2022-09-25T08:54:31.354Z,67.60
2022-09-25T08:57:16.434Z,67.70
2022-09-25T08:59:48.515Z,67.60
2022-09-25T09:02:50.851Z,67.20
2022-09-25T09:05:25.027Z,68.30
2022-09-25T09:08:15.552Z,68.40
2022-09-25T09:10:44.934Z,66.80
2022-09-25T09:13:25.037Z,66.20
2022-09-25T09:16:00.897Z,65.40
2022-09-25T09:18:28.584Z,66.70
2022-09-25T09:20:57.339Z,66.10
2022-09-25T09:23:29.653Z,66.50
2022-09-25T09:26:06.081Z,67.00
2022-09-25T09:28:52.039Z,65.40
2022-09-25T09:31:56.913Z,64.80
2022-09-25T09:34:53.601Z,61.20
2022-09-25T09:37:40.257Z,60.30
2022-09-25T09:40:38.114Z,60.60
2022-09-25T09:43:40.627Z,60.10
2022-09-25T09:46:20.171Z,59.00
2022-09-25T09:48:56.319Z,58.30
2022-09-25T09:51:26.767Z,56.50
2022-09-25T09:53:55.954Z,54.90
2022-09-25T09:56:25.567Z,61.60
2022-09-25T09:59:14.345Z,54.90
2022-09-25T10:01:42.410Z,54.80
2022-09-25T10:04:24.493Z,56.20
2022-09-25T10:06:57.320Z,53.90
2022-09-25T10:09:26.086Z,55.40
2022-09-25T10:11:59.920Z,55.40
2022-09-25T10:14:32.223Z,54.60
2022-09-25T10:16:59.116Z,55.40
2022-09-25T10:19:27.177Z,48.20
2022-09-25T10:22:28.223Z,53.60
2022-09-25T10:24:58.623Z,46.30
2022-09-25T10:27:36.720Z,47.40
2022-09-25T10:30:06.674Z,50.70
2022-09-25T10:32:35.108Z,52.80
2022-09-25T10:35:01.975Z,48.20
2022-09-25T10:37:34.937Z,52.80
2022-09-25T10:40:22.804Z,45.90
2022-09-25T10:42:49.732Z,43.00
2022-09-25T10:45:37.080Z,44.40
2022-09-25T10:48:47.307Z,41.70
2022-09-25T10:51:21.431Z,42.40
2022-09-25T10:53:53.254Z,48.50
2022-09-25T10:56:27.794Z,42.30
2022-09-25T10:58:57.749Z,40.80
2022-09-25T11:01:40.027Z,42.90
2022-09-25T11:04:32.131Z,39.40
2022-09-25T11:07:04.878Z,38.90
2022-09-25T11:09:32.599Z,36.20
2022-09-25T11:12:13.944Z,41.60
2022-09-25T11:14:45.452Z,38.80
2022-09-25T11:17:33.485Z,43.00
2022-09-25T11:20:18.295Z,38.80
2022-09-25T11:22:59.344Z,38.20
2022-09-25T11:25:50.786Z,38.60
2022-09-25T11:28:26.650Z,32.90
2022-09-25T11:31:11.829Z,35.80
2022-09-25T11:34:17.274Z,33.60
2022-09-25T11:36:48.292Z,33.20
2022-09-25T11:39:55.271Z,34.00
2022-09-25T11:42:39.847Z,33.10
2022-09-25T11:45:23.543Z,31.50
2022-09-25T11:48:13.035Z,31.50
2022-09-25T11:51:05.067Z,31.30
2022-09-25T11:54:17.859Z,32.10
2022-09-25T11:56:57.703Z,31.70
2022-09-25T11:59:41.291Z,29.50
2022-09-25T12:02:29.297Z,31.90
2022-09-25T12:05:14.780Z,29.40
2022-09-25T12:07:49.969Z,32.00
2022-09-25T12:10:44.041Z,32.80
2022-09-25T12:13:32.006Z,32.20
2022-09-25T12:16:32.313Z,28.10
2022-09-25T12:19:17.983Z,28.60
2022-09-25T12:21:57.566Z,34.90
2022-09-25T12:24:29.213Z,29.80
2022-09-25T12:27:14.455Z,27.20
2022-09-25T12:29:58.043Z,30.40
2022-09-25T12:32:53.193Z,33.30
2022-09-25T12:35:41.219Z,28.70
2022-09-25T12:38:17.863Z,31.20
2022-09-25T12:40:46.595Z,29.80
2022-09-25T12:43:33.741Z,31.40
2022-09-25T12:46:21.540Z,27.30
2022-09-25T12:48:50.591Z,27.40
2022-09-25T12:51:42.957Z,31.00
2022-09-25T12:54:25.264Z,25.80
2022-09-25T12:57:00.766Z,28.50
2022-09-25T12:59:46.597Z,29.70
2022-09-25T13:02:22.374Z,26.70
2022-09-25T13:04:53.724Z,30.40
2022-09-25T13:07:50.074Z,32.70
2022-09-25T13:10:53.970Z,27.60
2022-09-25T13:13:28.850Z,25.50
2022-09-25T13:16:00.556Z,28.70
2022-09-25T13:18:28.935Z,29.20
2022-09-25T13:21:17.986Z,30.50
2022-09-25T13:23:44.859Z,27.20
2022-09-25T13:26:19.294Z,29.30
2022-09-25T13:29:00.334Z,29.90
2022-09-25T13:31:32.104Z,28.80
2022-09-25T13:34:02.141Z,27.60
2022-09-25T13:36:40.616Z,29.80
2022-09-25T13:39:41.190Z,26.70
2022-09-25T13:42:33.400Z,28.70
2022-09-25T13:45:23.440Z,27.40
2022-09-25T13:47:57.090Z,26.30
2022-09-25T13:50:32.394Z,29.30
2022-09-25T13:53:17.676Z,29.30
2022-09-25T13:55:50.730Z,30.20
2022-09-25T13:58:28.824Z,27.50
2022-09-25T14:00:57.775Z,29.80
2022-09-25T14:03:48.286Z,30.70
2022-09-25T14:06:24.402Z,26.90
2022-09-25T14:08:53.405Z,25.00
2022-09-25T14:11:27.058Z,27.80
2022-09-25T14:13:55.319Z,26.40
2022-09-25T14:16:33.639Z,30.20
2022-09-25T14:19:03.873Z,27.00
2022-09-25T14:21:31.429Z,29.20
2022-09-25T14:23:58.825Z,28.40
2022-09-25T14:26:27.222Z,24.60
2022-09-25T14:28:57.829Z,25.40
2022-09-25T14:31:39.941Z,25.20
2022-09-25T14:34:48.769Z,26.10
2022-09-25T14:37:51.455Z,26.00
2022-09-25T14:40:34.359Z,27.90
2022-09-25T14:43:34.690Z,29.40
2022-09-25T14:46:05.429Z,26.60
2022-09-25T14:48:40.129Z,28.60
2022-09-25T14:51:13.160Z,28.40
2022-09-25T14:53:49.545Z,27.60
2022-09-25T14:56:16.802Z,26.10
2022-09-25T14:58:45.843Z,28.30
2022-09-25T15:01:17.981Z,29.30
2022-09-25T15:03:47.188Z,25.80
2022-09-25T15:06:16.365Z,27.80
2022-09-25T15:08:43.505Z,29.00
2022-09-25T15:11:15.288Z,28.60
2022-09-25T15:13:42.727Z,27.30
2022-09-25T15:16:44.542Z,28.80
2022-09-25T15:19:17.158Z,27.50
2022-09-25T15:21:44.148Z,25.20
2022-09-25T15:24:24.183Z,29.30
2022-09-25T15:26:56.368Z,26.90
2022-09-25T15:29:23.800Z,27.60
2022-09-25T15:31:51.426Z,28.00
2022-09-25T15:34:26.120Z,27.60
2022-09-25T15:36:53.385Z,25.10
2022-09-25T15:39:24.694Z,28.40
2022-09-25T15:41:51.703Z,27.10
2022-09-25T15:44:22.582Z,28.30
2022-09-25T15:46:56.997Z,29.00
2022-09-25T15:49:36.957Z,28.50
2022-09-25T15:52:06.023Z,27.70
2022-09-25T15:54:35.414Z,28.40
2022-09-25T15:57:07.966Z,28.50
2022-09-25T16:00:01.027Z,28.10
2022-09-25T16:02:51.817Z,28.70
2022-09-25T16:05:27.835Z,29.00
2022-09-25T16:08:17.737Z,27.40
2022-09-25T16:10:49.713Z,29.10
2022-09-25T16:13:21.363Z,29.60
2022-09-25T16:15:50.603Z,28.80
2022-09-25T16:18:36.342Z,29.60
2022-09-25T16:21:25.964Z,28.30
2022-09-25T16:24:12.640Z,28.20
2022-09-25T16:26:41.687Z,28.00
2022-09-25T16:29:11.714Z,29.50
2022-09-25T16:31:39.765Z,28.80
2022-09-25T16:34:15.346Z,31.30
2022-09-25T16:36:42.982Z,30.20
2022-09-25T16:39:10.008Z,30.80
2022-09-25T16:41:37.787Z,30.40
2022-09-25T16:44:25.329Z,30.30
2022-09-25T16:46:55.130Z,29.70
2022-09-25T16:49:21.953Z,30.90
2022-09-25T16:51:49.622Z,29.40
2022-09-25T16:54:17.977Z,32.10
2022-09-25T16:56:46.101Z,31.30
2022-09-25T16:59:18.010Z,30.20
2022-09-25T17:01:45.733Z,31.10
2022-09-25T17:04:15.704Z,31.10
2022-09-25T17:06:47.547Z,31.10
2022-09-25T17:09:15.664Z,31.20
2022-09-25T17:11:44.539Z,31.10
2022-09-25T17:14:22.744Z,31.00
2022-09-25T17:16:53.571Z,31.10
2022-09-25T17:19:21.332Z,30.90
2022-09-25T17:21:51.283Z,32.00
2022-09-25T17:24:23.875Z,30.90
2022-09-25T17:26:52.036Z,31.50
2022-09-25T17:29:22.234Z,33.10
2022-09-25T17:31:49.131Z,31.60
2022-09-25T17:34:16.813Z,32.50
2022-09-25T17:36:44.024Z,32.20
2022-09-25T17:39:11.121Z,32.50
2022-09-25T17:41:38.129Z,32.90
2022-09-25T17:44:05.267Z,33.30
2022-09-25T17:46:36.343Z,33.40
2022-09-25T17:49:03.535Z,34.00
2022-09-25T17:51:30.569Z,34.70
2022-09-25T17:53:58.047Z,35.10
2022-09-25T17:56:25.608Z,35.70
2022-09-25T17:58:56.782Z,36.10
2022-09-25T18:01:25.944Z,36.20
2022-09-25T18:03:57.637Z,36.80
2022-09-25T18:06:25.114Z,37.10
2022-09-25T18:08:53.571Z,37.60
2022-09-25T18:11:20.653Z,38.30
2022-09-25T18:13:47.635Z,38.20
2022-09-25T18:16:17.804Z,38.40
2022-09-25T18:19:03.640Z,40.00
2022-09-25T18:21:48.931Z,38.80
2022-09-25T18:24:15.872Z,40.10
2022-09-25T18:26:43.011Z,39.40
2022-09-25T18:29:13.180Z,39.10
2022-09-25T18:31:40.199Z,40.80
2022-09-25T18:34:07.354Z,40.80
2022-09-25T18:36:34.701Z,40.80
2022-09-25T18:39:01.814Z,40.80
2022-09-25T18:41:28.706Z,40.80
2022-09-25T18:43:55.544Z,41.30
2022-09-25T18:46:22.951Z,41.60
2022-09-25T18:48:49.990Z,42.10
2022-09-25T18:51:17.346Z,41.30
2022-09-25T18:53:44.243Z,41.60
2022-09-25T18:56:11.298Z,42.80
2022-09-25T18:58:38.255Z,42.40
2022-09-25T19:01:06.481Z,41.70
2022-09-25T19:03:37.151Z,42.10
2022-09-25T19:06:07.705Z,43.00
2022-09-25T19:08:36.192Z,43.60
2022-09-25T19:11:03.046Z,42.50
2022-09-25T19:13:30.081Z,43.10
2022-09-25T19:15:59.017Z,42.40
2022-09-25T19:18:26.002Z,42.50
2022-09-25T19:20:54.491Z,43.00
2022-09-25T19:23:25.107Z,44.30
2022-09-25T19:25:56.924Z,44.00
2022-09-25T19:28:23.877Z,44.00
2022-09-25T19:31:00.431Z,44.00
2022-09-25T19:33:32.456Z,44.80
2022-09-25T19:36:00.421Z,44.20
2022-09-25T19:38:30.754Z,43.80
2022-09-25T19:40:57.701Z,44.60
2022-09-25T19:43:24.895Z,44.20
2022-09-25T19:45:53.723Z,44.70
2022-09-25T19:48:21.317Z,45.60
2022-09-25T19:50:48.151Z,45.00
2022-09-25T19:53:15.203Z,45.10
2022-09-25T19:55:43.118Z,45.90
2022-09-25T19:58:11.085Z,46.30
2022-09-25T20:00:41.928Z,46.10
2022-09-25T20:03:09.755Z,46.80
2022-09-25T20:05:40.197Z,46.00
2022-09-25T20:08:07.574Z,47.00
2022-09-25T20:10:35.172Z,46.50
2022-09-25T20:13:02.041Z,47.20
2022-09-25T20:15:28.997Z,46.50
2022-09-25T20:17:56.417Z,46.90
2022-09-25T20:20:26.186Z,47.70
2022-09-25T20:22:53.088Z,47.30
2022-09-25T20:25:20.060Z,46.70
2022-09-25T20:27:51.150Z,47.10
2022-09-25T20:30:18.932Z,47.00
2022-09-25T20:32:45.854Z,47.30
2022-09-25T20:35:12.843Z,48.00
2022-09-25T20:37:39.791Z,46.80
2022-09-25T20:40:06.949Z,47.70
2022-09-25T20:42:34.053Z,47.60
2022-09-25T20:45:01.622Z,48.50
2022-09-25T20:47:33.699Z,47.40
2022-09-25T20:50:00.866Z,47.90
2022-09-25T20:52:28.328Z,47.60
2022-09-25T20:54:56.486Z,47.40
2022-09-25T20:57:23.419Z,48.00
2022-09-25T20:59:50.330Z,47.90
2022-09-25T21:02:17.411Z,48.10
2022-09-25T21:04:45.069Z,48.30
2022-09-25T21:07:15.983Z,49.20
2022-09-25T21:09:43.970Z,48.80
2022-09-25T21:12:10.838Z,48.50
2022-09-25T21:14:37.923Z,49.90
2022-09-25T21:17:04.922Z,50.40
2022-09-25T21:19:32.013Z,51.60
2022-09-25T21:21:58.923Z,51.90
2022-09-25T21:24:25.862Z,52.00
2022-09-25T21:26:52.805Z,50.70
2022-09-25T21:29:20.083Z,50.20
2022-09-25T21:31:50.201Z,51.50
2022-09-25T21:34:17.961Z,51.90
2022-09-25T21:36:45.322Z,53.50
2022-09-25T21:39:12.510Z,53.50
2022-09-25T21:41:39.479Z,53.50
2022-09-25T21:44:09.892Z,53.60
2022-09-25T21:46:36.821Z,53.50
2022-09-25T21:49:05.170Z,53.50
2022-09-25T21:51:34.282Z,53.50
2022-09-25T21:54:01.334Z,53.50
2022-09-25T21:56:30.131Z,53.50
2022-09-25T21:58:57.802Z,53.60
2022-09-25T22:01:28.667Z,53.50
2022-09-25T22:03:56.951Z,53.50
2022-09-25T22:06:45.507Z,56.30
2022-09-25T22:09:31.650Z,54.80
2022-09-25T22:11:58.569Z,55.10
2022-09-25T22:14:25.547Z,53.50
2022-09-25T22:16:53.100Z,53.40
2022-09-25T22:19:21.137Z,55.20
2022-09-25T22:21:48.966Z,53.40
2022-09-25T22:24:15.871Z,55.10
2022-09-25T22:26:44.250Z,53.90
2022-09-25T22:29:11.311Z,53.40
2022-09-25T22:31:38.796Z,54.90
2022-09-25T22:34:07.040Z,54.30
2022-09-25T22:36:35.963Z,55.20
2022-09-25T22:39:04.523Z,53.80
2022-09-25T22:41:31.579Z,53.60
2022-09-25T22:44:00.589Z,56.80
2022-09-25T22:46:28.185Z,54.70
2022-09-25T22:48:55.149Z,53.10
2022-09-25T22:51:23.661Z,54.20
2022-09-25T22:53:50.797Z,54.70
2022-09-25T22:56:18.527Z,54.50
2022-09-25T22:58:49.980Z,54.60
2022-09-25T23:01:19.555Z,54.70
2022-09-25T23:03:46.532Z,54.10
2022-09-25T23:06:14.130Z,54.70
2022-09-25T23:08:41.275Z,54.80
2022-09-25T23:11:08.625Z,55.20
2022-09-25T23:13:36.125Z,54.00
2022-09-25T23:16:09.380Z,55.30
2022-09-25T23:18:36.796Z,56.20
2022-09-25T23:21:04.263Z,54.70
2022-09-25T23:23:31.185Z,55.00
2022-09-25T23:26:08.552Z,53.90
2022-09-25T23:28:36.550Z,55.30
2022-09-25T23:31:12.016Z,54.20
2022-09-25T23:33:39.714Z,55.40
2022-09-25T23:36:08.560Z,56.10
2022-09-25T23:38:35.517Z,54.80
2022-09-25T23:41:02.773Z,55.80
2022-09-25T23:43:30.187Z,55.60
2022-09-25T23:45:57.082Z,57.00
2022-09-25T23:48:24.269Z,55.60
2022-09-25T23:50:52.713Z,54.60
2022-09-25T23:53:20.005Z,56.20
2022-09-25T23:55:47.037Z,56.50
2022-09-25T23:58:13.986Z,55.80
